createdAt,value
2022-09-10T00:01:07.040Z,100978.69
2022-09-10T00:04:15.443Z,100982.06
2022-09-10T00:07:19.558Z,100975.28
2022-09-10T00:10:24.085Z,100976.94
2022-09-10T00:13:27.696Z,100978.50
2022-09-10T00:16:32.735Z,100979.50
2022-09-10T00:19:37.776Z,100980.25
2022-09-10T00:22:41.650Z,100973.81
2022-09-10T00:25:45.293Z,100980.19
2022-09-10T00:28:50.586Z,100982.66
2022-09-10T00:31:54.899Z,100983.50
2022-09-10T00:35:01.368Z,100990.56
2022-09-10T00:38:05.913Z,100980.81
2022-09-10T00:41:10.102Z,100982.66
2022-09-10T00:45:02.182Z,100978.22
2022-09-10T00:48:13.107Z,100977.25
2022-09-10T00:51:19.305Z,100973.81
2022-09-10T00:54:28.270Z,100973.81
2022-09-10T00:57:32.301Z,100976.44
2022-09-10T01:00:36.761Z,100971.13
2022-09-10T01:03:42.019Z,100974.69
2022-09-10T01:06:55.829Z,100977.31
2022-09-10T01:10:09.582Z,100987.94
2022-09-10T01:13:32.997Z,100979.88
2022-09-10T01:16:49.639Z,100989.59
2022-09-10T01:20:40.519Z,100987.78
2022-09-10T01:24:50.140Z,100988.63
2022-09-10T01:28:00.932Z,100985.72
2022-09-10T01:31:15.841Z,100986.88
2022-09-10T01:34:27.954Z,100985.94
2022-09-10T01:37:34.662Z,100986.81
2022-09-10T01:40:39.566Z,100989.38
2022-09-10T01:43:44.619Z,100994.63
2022-09-10T01:47:05.990Z,100987.41
2022-09-10T01:50:24.166Z,100991.84
2022-09-10T01:54:01.829Z,100986.56
2022-09-10T01:57:19.733Z,100976.09
2022-09-10T02:00:28.048Z,100990.22
2022-09-10T02:03:34.227Z,100991.19
2022-09-10T02:06:45.923Z,100991.34
2022-09-10T02:09:50.785Z,100985.94
2022-09-10T02:12:55.503Z,100993.56
2022-09-10T02:16:03.508Z,100986.66
2022-09-10T02:19:08.813Z,100988.50
2022-09-10T02:22:12.456Z,100994.63
2022-09-10T02:25:16.435Z,100995.69
2022-09-10T02:28:20.467Z,100993.22
2022-09-10T02:31:25.847Z,100994.91
2022-09-10T02:34:30.618Z,100996.63
2022-09-10T02:37:34.160Z,100996.75
2022-09-10T02:40:39.174Z,101006.56
2022-09-10T02:43:42.778Z,101002.31
2022-09-10T02:46:47.759Z,101004.13
2022-09-10T02:49:51.347Z,101006.91
2022-09-10T02:52:55.543Z,101003.44
2022-09-10T02:55:59.660Z,101005.19
2022-09-10T02:59:04.183Z,101000.16
2022-09-10T03:02:09.811Z,101006.34
2022-09-10T03:05:13.771Z,100995.72
2022-09-10T03:08:17.442Z,101000.22
2022-09-10T03:11:23.984Z,100999.31
2022-09-10T03:14:30.365Z,101004.56
2022-09-10T03:17:35.623Z,101006.41
2022-09-10T03:20:39.442Z,100996.69
2022-09-10T03:23:44.910Z,101008.13
2022-09-10T03:26:48.580Z,101000.22
2022-09-10T03:29:52.231Z,101009.97
2022-09-10T03:32:57.872Z,101008.13
2022-09-10T03:36:02.776Z,101003.91
2022-09-10T03:39:06.576Z,101008.38
2022-09-10T03:42:11.249Z,101003.09
2022-09-10T03:45:14.879Z,101009.19
2022-09-10T03:48:21.603Z,101002.25
2022-09-10T03:51:25.197Z,101009.19
2022-09-10T03:54:28.774Z,101008.53
2022-09-10T03:57:32.594Z,101006.75
2022-09-10T04:00:37.235Z,100999.91
2022-09-10T04:03:42.285Z,101007.81
2022-09-10T04:06:45.859Z,101009.50
2022-09-10T04:09:49.439Z,101006.94
2022-09-10T04:12:54.262Z,101008.94
2022-09-10T04:15:57.740Z,101007.94
2022-09-10T04:19:02.730Z,101011.44
2022-09-10T04:22:06.786Z,101012.34
2022-09-10T04:25:10.765Z,101013.16
2022-09-10T04:28:14.813Z,101010.53
2022-09-10T04:31:20.297Z,101016.66
2022-09-10T04:34:25.438Z,101021.78
2022-09-10T04:37:29.084Z,101026.28
2022-09-10T04:40:32.798Z,101024.47
2022-09-10T04:43:36.728Z,101035.03
2022-09-10T04:46:41.982Z,101042.94
2022-09-10T04:49:46.908Z,101045.28
2022-09-10T04:52:50.606Z,101040.97
2022-09-10T04:55:55.683Z,101047.81
2022-09-10T04:58:59.263Z,101043.47
2022-09-10T05:02:03.852Z,101044.22
2022-09-10T05:05:10.038Z,101041.59
2022-09-10T05:08:14.219Z,101040.59
2022-09-10T05:11:20.148Z,101031.91
2022-09-10T05:14:25.475Z,101040.75
2022-09-10T05:17:29.460Z,101040.00
2022-09-10T05:20:35.015Z,101040.09
2022-09-10T05:23:39.535Z,101042.66
2022-09-10T05:26:44.082Z,101029.47
2022-09-10T05:29:47.628Z,101031.25
2022-09-10T05:32:53.341Z,101034.63
2022-09-10T05:35:58.269Z,101043.59
2022-09-10T05:39:04.704Z,101034.50
2022-09-10T05:42:08.816Z,101041.47
2022-09-10T05:45:12.688Z,101037.13
2022-09-10T05:48:16.272Z,101045.03
2022-09-10T05:51:21.647Z,101045.88
2022-09-10T05:54:25.392Z,101050.16
2022-09-10T05:57:29.160Z,101060.44
2022-09-10T06:00:33.779Z,101052.41
2022-09-10T06:03:38.055Z,101052.19
2022-09-10T06:06:42.983Z,101054.25
2022-09-10T06:09:46.705Z,101059.66
2022-09-10T06:12:52.107Z,101054.25
2022-09-10T06:15:56.419Z,101055.53
2022-09-10T06:19:00.572Z,101046.69
2022-09-10T06:22:05.797Z,101050.91
2022-09-10T06:25:10.895Z,101050.34
2022-09-10T06:28:14.407Z,101058.69
2022-09-10T06:31:19.723Z,101054.09
2022-09-10T06:34:23.300Z,101050.31
2022-09-10T06:37:28.353Z,101054.78
2022-09-10T06:40:33.034Z,101055.28
2022-09-10T06:43:38.010Z,101064.91
2022-09-10T06:50:08.983Z,101072.59
2022-09-10T06:53:13.964Z,101069.88
2022-09-10T06:56:18.116Z,101072.38
2022-09-10T06:59:21.887Z,101083.91
2022-09-10T07:02:25.805Z,101086.16
2022-09-10T07:05:29.558Z,101093.00
2022-09-10T07:08:34.585Z,101087.97
2022-09-10T07:11:41.592Z,101097.81
2022-09-10T07:14:45.455Z,101094.63
2022-09-10T07:17:49.086Z,101094.78
2022-09-10T07:20:52.863Z,101096.88
2022-09-10T07:24:01.368Z,101092.84
2022-09-10T07:27:05.126Z,101098.28
2022-09-10T07:30:10.268Z,101101.47
2022-09-10T07:33:13.922Z,101102.78
2022-09-10T07:36:19.352Z,101106.97
2022-09-10T07:39:25.937Z,101110.41
2022-09-10T07:42:29.706Z,101110.25
2022-09-10T07:45:35.584Z,101117.72
2022-09-10T07:48:39.538Z,101123.41
2022-09-10T07:51:43.191Z,101122.91
2022-09-10T07:54:48.212Z,101124.00
2022-09-10T07:57:51.740Z,101119.09
2022-09-10T08:00:55.390Z,101131.69
2022-09-10T08:04:00.451Z,101126.88
2022-09-10T08:07:04.149Z,101135.91
2022-09-10T08:10:11.708Z,101135.38
2022-09-10T08:13:15.483Z,101135.38
2022-09-10T08:16:23.037Z,101135.00
2022-09-10T08:19:26.705Z,101138.75
2022-09-10T08:22:31.775Z,101145.28
2022-09-10T08:25:38.089Z,101148.31
2022-09-10T08:28:43.340Z,101151.84
2022-09-10T08:31:47.530Z,101149.16
2022-09-10T08:34:52.523Z,101162.50
2022-09-10T08:37:56.160Z,101161.72
2022-09-10T08:41:02.612Z,101155.06
2022-09-10T08:44:16.211Z,101163.16
2022-09-10T08:47:31.153Z,101165.84
2022-09-10T08:50:46.113Z,101166.69
2022-09-10T08:54:00.544Z,101174.28
2022-09-10T08:57:16.415Z,101175.50
2022-09-10T09:00:23.450Z,101174.09
2022-09-10T09:03:35.137Z,101167.41
2022-09-10T09:06:46.531Z,101178.34
2022-09-10T09:09:52.927Z,101177.00
2022-09-10T09:13:39.298Z,101181.78
2022-09-10T09:17:07.074Z,101174.59
2022-09-10T09:20:18.128Z,101182.72
2022-09-10T09:23:25.185Z,101179.63
2022-09-10T09:26:36.603Z,101174.00
2022-09-10T09:29:48.895Z,101179.47
2022-09-10T09:32:52.675Z,101175.88
2022-09-10T09:36:01.437Z,101176.47
2022-09-10T09:39:16.042Z,101176.91
2022-09-10T09:42:31.969Z,101180.66
2022-09-10T09:45:39.860Z,101175.44
2022-09-10T09:48:45.157Z,101185.16
2022-09-10T09:51:51.855Z,101186.28
2022-09-10T09:55:16.119Z,101186.31
2022-09-10T09:58:35.472Z,101180.22
2022-09-10T10:01:43.550Z,101194.06
2022-09-10T10:05:01.984Z,101180.78
2022-09-10T10:08:05.714Z,101186.00
2022-09-10T10:11:10.003Z,101184.53
2022-09-10T10:14:33.668Z,101189.47
2022-09-10T10:17:41.458Z,101188.13
2022-09-10T10:20:45.030Z,101184.25
2022-09-10T10:23:49.646Z,101179.59
2022-09-10T10:26:53.253Z,101187.63
2022-09-10T10:30:01.709Z,101188.59
2022-09-10T10:33:17.425Z,101188.59
2022-09-10T10:36:29.423Z,101190.38
2022-09-10T10:40:08.613Z,101193.59
2022-09-10T10:43:29.822Z,101194.91
2022-09-10T10:46:48.681Z,101193.44
2022-09-10T10:50:09.058Z,101193.09
2022-09-10T10:53:36.998Z,101192.22
2022-09-10T10:56:48.824Z,101185.56
2022-09-10T11:00:06.426Z,101190.69
2022-09-10T11:03:21.650Z,101193.59
2022-09-10T11:06:36.311Z,101190.50
2022-09-10T11:09:46.986Z,101187.47
2022-09-10T11:12:59.060Z,101183.44
2022-09-10T11:16:09.704Z,101178.78
2022-09-10T11:19:26.377Z,101176.94
2022-09-10T11:22:40.511Z,101175.44
2022-09-10T11:26:00.523Z,101176.38
2022-09-10T11:29:25.430Z,101178.84
2022-09-10T11:32:36.675Z,101170.69
2022-09-10T11:35:46.881Z,101173.00
2022-09-10T11:39:09.332Z,101170.44
2022-09-10T11:42:21.207Z,101176.69
2022-09-10T11:45:46.796Z,101165.34
2022-09-10T11:48:59.659Z,101169.28
2022-09-10T11:52:04.317Z,101167.97
2022-09-10T11:55:17.798Z,101158.81
2022-09-10T11:58:34.063Z,101157.56
2022-09-10T12:02:02.856Z,101160.13
2022-09-10T12:05:24.148Z,101152.75
2022-09-10T12:08:49.691Z,101149.28
2022-09-10T12:12:08.038Z,101145.53
2022-09-10T12:15:20.789Z,101143.00
2022-09-10T12:18:29.971Z,101142.16
2022-09-10T12:21:40.178Z,101137.56
2022-09-10T12:24:56.497Z,101145.22
2022-09-10T12:28:07.887Z,101149.53
2022-09-10T12:31:14.233Z,101143.81
2022-09-10T12:34:20.704Z,101153.00
2022-09-10T12:37:28.722Z,101152.19
2022-09-10T12:40:49.650Z,101141.09
2022-09-10T12:43:59.822Z,101156.84
2022-09-10T12:47:50.483Z,101149.19
2022-09-10T12:51:00.570Z,101147.03
2022-09-10T12:54:29.703Z,101149.81
2022-09-10T12:57:50.775Z,101160.47
2022-09-10T13:01:18.596Z,101149.69
2022-09-10T13:04:29.621Z,101151.44
2022-09-10T13:07:41.728Z,101146.78
2022-09-10T13:10:50.971Z,101146.38
2022-09-10T13:14:00.774Z,101148.75
2022-09-10T13:17:06.772Z,101142.91
2022-09-10T13:20:31.991Z,101153.47
2022-09-10T13:23:56.931Z,101144.03
2022-09-10T13:27:20.703Z,101150.66
2022-09-10T13:30:25.387Z,101146.53
2022-09-10T13:33:38.030Z,101146.41
2022-09-10T13:37:03.339Z,101144.69
2022-09-10T13:40:39.855Z,101150.19
2022-09-10T13:44:12.987Z,101155.03
2022-09-10T13:47:23.714Z,101139.94
2022-09-10T13:50:37.779Z,101141.50
2022-09-10T13:53:47.264Z,101137.69
2022-09-10T13:56:52.568Z,101140.34
2022-09-10T14:00:08.174Z,101149.31
2022-09-10T14:03:24.977Z,101147.59
2022-09-10T14:06:30.966Z,101142.28
2022-09-10T14:09:36.418Z,101143.44
2022-09-10T14:12:41.063Z,101151.00
2022-09-10T14:15:54.427Z,101147.69
2022-09-10T14:19:03.103Z,101150.03
2022-09-10T14:22:10.173Z,101150.88
2022-09-10T14:25:32.838Z,101150.25
2022-09-10T14:28:37.218Z,101155.25
2022-09-10T14:31:42.235Z,101151.22
2022-09-10T14:34:47.395Z,101157.91
2022-09-10T14:37:52.476Z,101165.66
2022-09-10T14:41:04.369Z,101163.13
2022-09-10T14:44:29.790Z,101166.91
2022-09-10T14:47:37.217Z,101169.38
2022-09-10T14:50:43.874Z,101165.09
2022-09-10T14:53:53.747Z,101168.69
2022-09-10T14:57:01.998Z,101168.09
2022-09-10T15:00:06.835Z,101175.59
2022-09-10T15:03:17.836Z,101173.22
2022-09-10T15:06:25.626Z,101171.56
2022-09-10T15:09:32.067Z,101178.19
2022-09-10T15:12:38.019Z,101177.84
2022-09-10T15:15:41.679Z,101178.66
2022-09-10T15:18:45.399Z,101183.31
2022-09-10T15:21:49.734Z,101183.50
2022-09-10T15:25:11.721Z,101193.91
2022-09-10T15:28:15.503Z,101191.44
2022-09-10T15:31:19.386Z,101185.50
2022-09-10T15:34:23.066Z,101187.22
2022-09-10T15:37:27.137Z,101192.91
2022-09-10T15:40:32.890Z,101191.41
2022-09-10T15:43:41.386Z,101191.66
2022-09-10T15:46:45.517Z,101189.69
2022-09-10T15:49:49.299Z,101188.03
2022-09-10T15:52:52.974Z,101185.00
2022-09-10T15:56:02.461Z,101181.88
2022-09-10T15:59:08.658Z,101180.31
2022-09-10T16:02:13.182Z,101174.41
2022-09-10T16:05:17.031Z,101182.94
2022-09-10T16:08:20.614Z,101185.66
2022-09-10T16:11:26.612Z,101181.91
2022-09-10T16:14:34.199Z,101187.47
2022-09-10T16:17:37.714Z,101189.41
2022-09-10T16:20:41.389Z,101186.84
2022-09-10T16:23:46.365Z,101200.63
2022-09-10T16:26:51.364Z,101199.06
2022-09-10T16:29:54.879Z,101203.53
2022-09-10T16:32:58.741Z,101202.56
2022-09-10T16:36:05.821Z,101209.59
2022-09-10T16:39:12.934Z,101212.19
2022-09-10T16:42:18.166Z,101216.19
2022-09-10T16:45:22.235Z,101219.16
2022-09-10T16:48:26.051Z,101223.97
2022-09-10T16:51:30.166Z,101220.41
2022-09-10T16:54:33.997Z,101231.94
2022-09-10T16:57:39.131Z,101232.22
2022-09-10T17:00:42.806Z,101229.06
2022-09-10T17:03:49.884Z,101228.47
2022-09-10T17:06:53.422Z,101236.63
2022-09-10T17:10:00.709Z,101231.72
2022-09-10T17:13:06.144Z,101233.00
2022-09-10T17:16:23.695Z,101237.84
2022-09-10T17:19:28.431Z,101246.22
2022-09-10T17:22:32.043Z,101259.09
2022-09-10T17:25:36.523Z,101266.31
2022-09-10T17:28:41.824Z,101266.16
2022-09-10T17:31:47.687Z,101275.13
2022-09-10T17:34:51.610Z,101277.44
2022-09-10T17:37:55.225Z,101279.66
2022-09-10T17:41:02.341Z,101285.19
2022-09-10T17:44:08.015Z,101279.31
2022-09-10T17:47:12.295Z,101278.63
2022-09-10T17:50:16.015Z,101284.09
2022-09-10T17:53:20.631Z,101275.53
2022-09-10T17:56:27.558Z,101278.44
2022-09-10T17:59:32.704Z,101287.50
2022-09-10T18:02:36.278Z,101290.56
2022-09-10T18:05:40.655Z,101299.63
2022-09-10T18:08:44.586Z,101295.50
2022-09-10T18:11:48.279Z,101299.47
2022-09-10T18:14:53.227Z,101310.16
2022-09-10T18:17:59.614Z,101312.13
2022-09-10T18:21:16.600Z,101314.94
2022-09-10T18:24:23.699Z,101325.84
2022-09-10T18:27:27.944Z,101331.47
2022-09-10T18:30:33.141Z,101337.22
2022-09-10T18:33:38.370Z,101334.94
2022-09-10T18:36:44.051Z,101341.41
2022-09-10T18:39:47.984Z,101340.91
2022-09-10T18:42:51.689Z,101340.38
2022-09-10T18:45:56.600Z,101343.25
2022-09-10T18:49:02.390Z,101345.25
2022-09-10T18:52:07.063Z,101344.75
2022-09-10T18:55:11.250Z,101340.63
2022-09-10T18:58:14.807Z,101348.94
2022-09-10T19:01:21.194Z,101356.25
2022-09-10T19:04:29.635Z,101362.75
2022-09-10T19:07:33.230Z,101356.81
2022-09-10T19:10:36.805Z,101365.81
2022-09-10T19:13:40.502Z,101367.84
2022-09-10T19:16:47.142Z,101371.56
2022-09-10T19:19:50.861Z,101383.22
2022-09-10T19:22:54.558Z,101387.84
2022-09-10T19:25:58.963Z,101380.28
2022-09-10T19:29:03.971Z,101384.97
2022-09-10T19:32:09.492Z,101391.09
2022-09-10T19:35:14.350Z,101392.25
2022-09-10T19:38:36.600Z,101399.38
2022-09-10T19:41:43.251Z,101399.63
2022-09-10T19:44:46.872Z,101398.91
2022-09-10T19:47:51.823Z,101402.63
2022-09-10T19:50:55.608Z,101403.66
2022-09-10T19:54:00.547Z,101412.88
2022-09-10T19:57:04.255Z,101419.53
2022-09-10T20:00:20.622Z,101431.09
2022-09-10T20:03:36.620Z,101425.06
2022-09-10T20:06:41.218Z,101433.13
2022-09-10T20:09:44.870Z,101432.47
2022-09-10T20:12:48.450Z,101434.41
2022-09-10T20:15:52.111Z,101437.25
2022-09-10T20:18:57.779Z,101441.84
2022-09-10T20:22:01.915Z,101436.00
2022-09-10T20:25:06.365Z,101446.63
2022-09-10T20:28:10.000Z,101453.50
2022-09-10T20:31:14.773Z,101453.50
2022-09-10T20:34:22.326Z,101451.72
2022-09-10T20:37:26.027Z,101448.22
2022-09-10T20:40:29.655Z,101452.69
2022-09-10T20:43:33.593Z,101441.44
2022-09-10T20:46:37.957Z,101439.81
2022-09-10T20:49:42.995Z,101439.00
2022-09-10T20:52:46.586Z,101439.13
2022-09-10T20:55:51.576Z,101439.19
2022-09-10T20:58:55.252Z,101442.88
2022-09-10T21:01:58.938Z,101439.81
2022-09-10T21:05:04.026Z,101449.69
2022-09-10T21:08:07.994Z,101442.69
2022-09-10T21:11:15.262Z,101439.38
2022-09-10T21:14:19.284Z,101438.50
2022-09-10T21:17:22.915Z,101449.81
2022-09-10T21:20:28.430Z,101448.19
2022-09-10T21:23:32.096Z,101448.31
2022-09-10T21:26:39.287Z,101448.47
2022-09-10T21:29:42.902Z,101449.50
2022-09-10T21:32:46.583Z,101448.53
2022-09-10T21:36:02.222Z,101452.13
2022-09-10T21:39:09.872Z,101459.97
2022-09-10T21:42:13.436Z,101460.06
2022-09-10T21:45:26.225Z,101456.69
2022-09-10T21:48:31.739Z,101456.69
2022-09-10T21:51:37.018Z,101453.34
2022-09-10T21:54:40.584Z,101468.72
2022-09-10T21:57:44.244Z,101462.91
2022-09-10T22:00:48.089Z,101468.94
2022-09-10T22:03:53.580Z,101466.44
2022-09-10T22:06:58.751Z,101462.97
2022-09-10T22:10:02.351Z,101467.66
2022-09-10T22:13:06.173Z,101471.34
2022-09-10T22:16:12.572Z,101475.75
2022-09-10T22:19:22.446Z,101483.66
2022-09-10T22:22:28.063Z,101477.53
2022-09-10T22:25:33.298Z,101480.28
2022-09-10T22:28:38.374Z,101486.66
2022-09-10T22:31:42.016Z,101490.31
2022-09-10T22:34:46.983Z,101490.34
2022-09-10T22:37:55.699Z,101496.41
2022-09-10T22:41:03.399Z,101498.16
2022-09-10T22:44:08.679Z,101498.41
2022-09-10T22:47:12.310Z,101508.16
2022-09-10T22:50:16.457Z,101508.88
2022-09-10T22:53:21.844Z,101513.47
2022-09-10T22:56:27.694Z,101510.84
2022-09-10T22:59:37.329Z,101514.28
2022-09-10T23:02:41.114Z,101514.28
2022-09-10T23:05:44.636Z,101516.84
2022-09-10T23:08:52.427Z,101523.78
2022-09-10T23:11:56.017Z,101528.16
2022-09-10T23:14:59.615Z,101530.06
2022-09-10T23:18:03.207Z,101537.88
2022-09-10T23:21:07.281Z,101540.63
2022-09-10T23:24:14.753Z,101531.81
2022-09-10T23:27:18.593Z,101536.31
2022-09-10T23:30:23.042Z,101543.41
2022-09-10T23:33:26.628Z,101545.16
2022-09-10T23:36:33.169Z,101546.97
2022-09-10T23:39:39.527Z,101557.50
2022-09-10T23:42:43.096Z,101558.34
2022-09-10T23:45:46.657Z,101560.06
2022-09-10T23:48:50.419Z,101570.56
2022-09-10T23:51:54.390Z,101568.94
2022-09-10T23:55:00.349Z,101568.09
2022-09-10T23:58:03.996Z,101579.53
